KGON/GON METAR and TAF weather

Enter ICAO airport designator
Station Type Date Time Source
KGON METAR 2022/08/12 13:56 UTC NOAA

KGON 121356Z 36008KT 10SM CLR 23/14 A2997 RMK AO2 SLP149 T02330139


Station Type Date Time Source
KGON Decoded METAR 2022/08/12 13:56 UTC NOAA

GROTON/NEW LONDON AIRPORT , CT, United States (KGON) 41-20N 72-03W 3M
Aug 12, 2022 - 09:56 AM EDT / 2022.08.12 1356 UTC
Wind: from the N (360 degrees) at 9 MPH (8 KT):0
Visibility: 10 mile(s):0
Sky conditions: clear
Temperature: 73.9 F (23.3 C)
Dew Point: 57.0 F (13.9 C)
Relative Humidity: 55%
Pressure (altimeter): 29.97 in. Hg (1014 hPa)
ob: KGON 121356Z 36008KT 10SM CLR 23/14 A2997 RMK AO2 SLP149 T02330139
cycle: 14

Station Type Date Time Source
KGON TAF 2022/08/12 12:30 UTC NOAA

TAF KGON 121129Z 1212/1312 35008KT P6SM FEW080 SCT100
FM121400 36011KT P6SM SCT025 BKN150
FM121900 16004KT P6SM BKN050
FM130100 VRB03KT P6SM SCT050
FM130700 01007KT P6SM SCT050

Example: see airport list